»·PEaware :: PHTIM KSAN-CL35

PHTIM :: KSAN-CL35

FLIGHT INFORMATION

Flight Status: Arrived
Operator: Unknown
More flights by this operator :: More flights under this callsign
Pilot: Tim P. (6337)
Aircraft: CESSNA T210 TURBO CENTURION
(T210)
More flights by this aircraft type
Origin: KSAN San Diego Intl-Lindbergh
United States
Destination: CL35 Warner Springs
United States
More flights between these airports :: More routes between these airports
Route: +JLI
File this flight plan on PilotEdge
Remarks:
Altitude:
(Current/Filed)
9,000ft
Speed:
(Current/Filed)
160kts
Departed: 03-Jan-19 10:05 PM
Arrived: 03-Jan-19 10:33 PM
Distance/Time
Traveled:
42nm/0:27
Distance/Time
To Go:
Arrived

Flight Plot

Page will automatically refresh every two minutes.

Flight plan parsing failed; only flown route is shown


Map Options




Map Legend


Flown Route
Filed Route
Departure Airport
Arrival Airport
Navaid (VOR, NDB)
Fix

Horizontal Profiles

Position Reports

Time Latitude Longitude Heading Altitude Ground
Speed
03-Jan-19 21:43 32.732079 -117.176571 194 23ft 0kts
03-Jan-19 21:44 32.732079 -117.176571 194 23ft 0kts
03-Jan-19 21:45 32.732079 -117.176571 194 23ft 0kts
03-Jan-19 21:46 32.732079 -117.176571 194 23ft 0kts
03-Jan-19 21:47 32.732079 -117.176571 194 23ft 0kts
03-Jan-19 21:48 32.732079 -117.176571 194 23ft 0kts
03-Jan-19 21:49 32.732079 -117.176571 194 23ft 0kts
03-Jan-19 21:50 32.732079 -117.176571 194 23ft 0kts
03-Jan-19 21:51 32.732079 -117.176571 193 23ft 0kts
03-Jan-19 21:52 32.732079 -117.176571 193 23ft 0kts
03-Jan-19 21:53 32.732079 -117.176571 193 23ft 0kts
03-Jan-19 21:54 32.732079 -117.176571 193 23ft 0kts
03-Jan-19 21:55 32.732079 -117.176571 193 23ft 0kts
03-Jan-19 21:56 32.732079 -117.176571 193 23ft 0kts
03-Jan-19 21:57 32.732079 -117.176571 193 23ft 0kts
03-Jan-19 21:58 32.732079 -117.176571 193 23ft 0kts
03-Jan-19 21:59 32.732079 -117.176571 193 23ft 0kts
03-Jan-19 22:00 32.731135 -117.175803 121 23ft 8kts
03-Jan-19 22:01 32.730853 -117.175431 141 23ft 0kts
03-Jan-19 22:02 32.730853 -117.175431 141 23ft 0kts
03-Jan-19 22:03 32.730847 -117.175425 140 23ft 0kts
03-Jan-19 22:04 32.732517 -117.185704 285 144ft 88kts
03-Jan-19 22:05 32.748328 -117.214397 319 1123ft 115kts
03-Jan-19 22:06 32.773488 -117.240208 319 2040ft 136kts
03-Jan-19 22:07 32.806372 -117.273591 320 1998ft 161kts
03-Jan-19 22:08 32.840504 -117.308651 320 1968ft 162kts
03-Jan-19 22:09 32.869863 -117.339500 320 2948ft 126kts
03-Jan-19 22:10 32.895416 -117.366701 321 3830ft 118kts
03-Jan-19 22:11 32.924623 -117.377096 28 4616ft 119kts
03-Jan-19 22:12 32.940569 -117.345487 63 5588ft 108kts
03-Jan-19 22:13 32.951127 -117.311937 70 6466ft 112kts
03-Jan-19 22:14 32.961218 -117.276183 70 7274ft 118kts
03-Jan-19 22:15 32.971640 -117.240319 70 8167ft 116kts
03-Jan-19 22:16 32.981963 -117.204601 66 8971ft 124kts
03-Jan-19 22:17 32.995833 -117.159220 71 9073ft 162kts
03-Jan-19 22:18 33.009882 -117.105039 72 8955ft 173kts
03-Jan-19 22:19 33.022902 -117.051242 72 9023ft 167kts
03-Jan-19 22:20 33.036379 -116.996909 73 9038ft 172kts
03-Jan-19 22:21 33.050220 -116.943385 70 9007ft 170kts
03-Jan-19 22:22 33.064829 -116.888889 70 8916ft 174kts
03-Jan-19 22:23 33.097882 -116.848047 34 8380ft 179kts
03-Jan-19 22:24 33.138784 -116.815532 34 7259ft 179kts
03-Jan-19 22:25 33.175498 -116.780880 40 6360ft 164kts
03-Jan-19 22:26 33.211143 -116.747129 38 5260ft 161kts
03-Jan-19 22:27 33.246066 -116.712503 40 4051ft 157kts
03-Jan-19 22:28 33.270490 -116.683174 46 3864ft 105kts
03-Jan-19 22:29 33.269879 -116.651655 99 3958ft 92kts
03-Jan-19 22:30 33.282415 -116.637699 354 3689ft 87kts
03-Jan-19 22:31 33.284738 -116.662194 268 2929ft 72kts
03-Jan-19 22:32 33.284484 -116.670480 88 2886ft 17kts
03-Jan-19 22:33 33.284239 -116.664041 152 2886ft 6kts
03-Jan-19 22:34 33.284218 -116.663814 23 2886ft 0kts
03-Jan-19 22:35 33.284218 -116.663814 23 2886ft 0kts
03-Jan-19 22:36 33.284218 -116.663814 23 2886ft 0kts
03-Jan-19 22:37 33.284218 -116.663814 23 2886ft 0kts
03-Jan-19 22:38 33.284218 -116.663814 23 2886ft 0kts

Navigation Log

Ident Type
Flight plan parsing failed, navigation log unavailable